M I D A S
Marine Information and Data Acquisition System
Tripno 1213 of the Zeeleeuw from 2007-02-19 08:25:30 to 2007-02-19 16:47:37
Back to CruiseResearch ActivitiesStationsMapUnderway DataData graphs

EquipmentUnitsComment
TimeDGPSUTC
LatitudeDGPSDM.mWGS84
LongitudeDGPSDM.mWGS84
TemperatureSBE03/SBE38deg celciusITS90
ConductivitySBE21S/mITS90
SalinitySBE21 Practical Salinity Units
ChlorophylAChelsea fluorimeterg/lCalibrated in Aceton
Missing or incorrect values are displayed as -999
Sea surface data collected by the RV Zeeleeuw from 2007-02-19 08:29:15 to 2007-02-19 16:56:02
Time Latitude Longitude Temperature Conductivity Salinity ChlorophylA
2007-02-19 08:30:24 51°13.611 2°56.043 15.323 5.0E-5 0.011648 -2.871232
2007-02-19 08:31:24 51°13.641 2°55.95 15.4059 5.0E-5 0.011642 -2.871232
2007-02-19 08:32:24 51°13.688 2°55.851 15.3761 5.0E-5 0.011635 -2.871232
2007-02-19 08:33:24 51°13.727 2°55.761 15.3611 5.0E-5 0.011627 -2.871232
2007-02-19 08:34:21 51°13.745 2°55.694 15.3478 5.0E-5 0.01162 -2.871232
2007-02-19 08:35:21 51°13.754 2°55.684 15.2803 5.0E-5 0.011613 -2.871232
2007-02-19 08:36:21 51°13.756 2°55.668 15.4826 5.0E-5 0.011606 -2.871232
2007-02-19 08:37:21 51°13.806 2°55.641 15.4333 5.0E-5 0.0116 -2.871232
2007-02-19 08:38:21 51°13.924 2°55.562 11.0649 5.0E-5 0.011601 -2.871232
2007-02-19 08:39:21 51°14.067 2°55.48 7.8112 3.065351 27.080776 -2.871232
2007-02-19 08:40:21 51°14.201 2°55.364 7.6168 2.94805 26.758623 -2.871232
2007-02-19 08:41:24 51°14.31 2°55.18 7.5914 2.906679 26.475109 -2.871232
2007-02-19 08:42:21 51°14.401 2°54.978 7.5834 2.955397 27.004963 -2.871232
2007-02-19 08:43:21 51°14.448 2°54.684 7.6311 3.121962 28.714242 -2.871232
2007-02-19 08:44:21 51°14.386 2°54.388 7.6801 3.314054 30.606682 -2.871232
2007-02-19 08:45:21 51°14.281 2°54.113 7.7157 3.352565 30.981518 -2.871232
2007-02-19 08:46:21 51°14.175 2°53.832 7.7094 3.386316 31.316362 -2.871232
2007-02-19 08:47:21 51°14.068 2°53.549 7.7159 3.392011 31.382542 -2.871232
2007-02-19 08:48:21 51°13.962 2°53.264 7.7166 3.388387 31.351394 -2.871232
2007-02-19 08:49:21 51°13.855 2°52.975 7.7004 3.393772 31.416159 -2.871232
2007-02-19 08:50:21 51°13.746 2°52.676 7.7054 3.393357 31.417959 -2.871232
2007-02-19 08:51:21 51°13.623 2°52.347 7.6997 3.394496 31.440039 -2.871232
2007-02-19 08:52:21 51°13.502 2°52.004 7.7035 3.392219 31.419234 -2.871232
2007-02-19 08:53:21 51°13.383 2°51.656 7.691 3.395221 31.456147 -2.871232
2007-02-19 08:54:21 51°13.267 2°51.304 7.6836 3.401227 31.523079 -2.871232
2007-02-19 08:55:21 51°13.147 2°50.953 7.6869 3.403505 31.550846 -2.871232
2007-02-19 08:56:21 51°13.029 2°50.599 7.6827 3.401745 31.539697 -2.871232
2007-02-19 08:57:21 51°12.912 2°50.243 7.6786 3.405886 31.584039 -2.871232
2007-02-19 08:58:21 51°12.792 2°49.888 7.6709 3.409303 31.629654 -2.871232
2007-02-19 08:59:21 51°12.673 2°49.53 7.6697 3.40454 31.588474 -2.871232
2007-02-19 09:00:21 51°12.553 2°49.171 7.6692 3.402366 31.573059 -2.871232
2007-02-19 09:01:21 51°12.432 2°48.811 7.6697 3.40744 31.620061 -2.871232
2007-02-19 09:02:21 51°12.312 2°48.455 7.6614 3.408164 31.628395 -2.871232
2007-02-19 09:03:21 51°12.191 2°48.098 7.6546 3.405058 31.60862 -2.871232
2007-02-19 09:04:21 51°12.081 2°47.731 7.6487 3.40568 31.61938 -2.871232
2007-02-19 09:05:21 51°11.973 2°47.365 7.656 3.410753 31.676014 -2.871232
2007-02-19 09:06:21 51°11.864 2°46.999 7.6607 3.416552 31.728762 -2.871232
2007-02-19 09:07:21 51°11.756 2°46.633 7.6603 3.422764 31.792788 -2.871232
2007-02-19 09:08:21 51°11.648 2°46.266 7.6704 3.427113 31.836738 -2.871232
2007-02-19 09:09:21 51°11.543 2°45.898 7.6718 3.432601 31.887161 -2.871232
2007-02-19 09:10:21 51°11.447 2°45.525 7.683 3.438193 31.936003 -2.871232
2007-02-19 09:11:21 51°11.351 2°45.154 7.6887 3.442542 31.975551 -2.871232
2007-02-19 09:12:21 51°11.257 2°44.782 7.6898 3.445752 32.005117 -2.871232
2007-02-19 09:13:21 51°11.172 2°44.405 7.6908 3.447512 32.019735 -2.871232
2007-02-19 09:14:21 51°11.092 2°44.025 7.6885 3.448651 32.031478 -2.871232
2007-02-19 09:15:21 51°11.013 2°43.645 7.6918 3.449687 32.042154 -2.871232
2007-02-19 09:16:21 51°10.936 2°43.265 7.6886 3.450101 32.047308 -2.871232
2007-02-19 09:17:21 51°10.859 2°42.884 7.6983 3.450929 32.05585 -2.871232
2007-02-19 09:18:21 51°10.782 2°42.504 7.6905 3.451033 32.058686 -2.871232
2007-02-19 09:19:21 51°10.706 2°42.123 7.6898 3.450826 32.055666 -2.871232
2007-02-19 09:20:21 51°10.659 2°41.784 7.7086 3.45124 32.057286 -2.871232
2007-02-19 09:21:21 51°10.722 2°41.664 7.6853 3.449479 32.031188 -2.871232
2007-02-19 09:22:21 51°10.784 2°41.66 7.6772 3.447409 32.025731 -2.871232
2007-02-19 09:23:21 51°10.862 2°41.749 7.6552 3.43985 31.962781 -2.871232
2007-02-19 09:24:21 51°10.929 2°41.814 7.6477 3.432808 31.898096 -2.871232
2007-02-19 09:25:21 51°10.983 2°41.879 7.6492 3.429391 31.875175 -2.871232
2007-02-19 09:26:21 51°11.03 2°41.953 7.6501 3.431359 31.889307 -2.871232
2007-02-19 09:27:21 51°11.075 2°42.027 7.6588 3.440057 31.978151 -2.871232
2007-02-19 09:28:21 51°11.111 2°42.075 7.6633 3.446684 32.040346 -2.871232
2007-02-19 09:29:21 51°11.115 2°42.06 7.6648 3.445752 32.032498 -2.871232
2007-02-19 09:30:21 51°11.118 2°42.037 7.6585 3.445856 32.030914 -2.871232
2007-02-19 09:31:21 51°11.123 2°42.012 7.6626 3.445856 32.032682 -2.871232
2007-02-19 09:32:21 51°11.126 2°41.988 7.666 3.448444 32.054972 -2.871232
2007-02-19 09:33:21 51°11.127 2°41.966 7.6721 3.450515 32.075457 -2.871232
2007-02-19 09:34:21 51°11.127 2°41.945 7.6719 3.45269 32.09347 -2.871232
2007-02-19 09:35:21 51°11.13 2°41.934 7.6765 3.454864 32.113251 -2.871232
2007-02-19 09:36:21 51°11.18 2°41.886 7.6846 3.457764 32.143172 -2.871232
2007-02-19 09:37:21 51°11.161 2°41.68 7.6932 3.464909 32.206259 -2.871232
2007-02-19 09:38:21 51°11.073 2°41.356 7.6986 3.468741 32.242246 -2.871232
2007-02-19 09:39:21 51°10.973 2°41.004 7.7011 3.469362 32.243324 -2.871232
2007-02-19 09:40:21 51°10.876 2°40.647 7.7074 3.469155 32.236743 -2.871232
2007-02-19 09:41:21 51°10.809 2°40.273 7.7078 3.469155 32.229635 -2.871232
2007-02-19 09:42:21 51°10.752 2°39.893 7.7192 3.469465 32.231951 -2.871232
2007-02-19 09:43:21 51°10.693 2°39.512 7.7213 3.470604 32.23837 -2.871232
2007-02-19 09:44:21 51°10.634 2°39.129 7.729 3.47164 32.241055 -2.871232
2007-02-19 09:45:21 51°10.577 2°38.748 7.7348 3.473607 32.25779 -2.871232
2007-02-19 09:46:21 51°10.522 2°38.368 7.7402 3.472986 32.24339 -2.871232
2007-02-19 09:47:21 51°10.471 2°37.992 7.743 3.472157 32.230412 -2.871232
2007-02-19 09:48:21 51°10.438 2°37.616 7.7469 3.46584 32.165316 -2.871232
2007-02-19 09:49:21 51°10.419 2°37.238 7.7474 3.460973 32.117825 -2.871232
2007-02-19 09:50:21 51°10.431 2°36.866 7.7627 3.461284 32.106881 -2.871232
2007-02-19 09:51:21 51°10.527 2°36.56 7.7904 3.46439 32.130916 -2.871232
2007-02-19 09:52:21 51°10.725 2°36.493 7.789 3.472674 32.178161 -2.871232
2007-02-19 09:53:21 51°10.931 2°36.561 7.7863 3.47982 32.263214 -2.871232
2007-02-19 09:54:21 51°11.139 2°36.614 7.7955 3.484791 32.316173 -2.871232
2007-02-19 09:55:21 51°11.348 2°36.656 7.7988 3.488933 32.351719 -2.871232
2007-02-19 09:56:21 51°11.556 2°36.709 7.7869 3.490487 32.367716 -2.871232
2007-02-19 09:57:21 51°11.763 2°36.759 7.785 3.490073 32.37146 -2.871232
2007-02-19 09:58:21 51°11.972 2°36.807 7.7748 3.490073 32.380363 -2.871232
2007-02-19 09:59:21 51°12.178 2°36.871 7.7638 3.490591 32.389262 -2.871232
2007-02-19 10:00:21 51°12.385 2°36.931 7.7528 3.491212 32.412607 -2.871232
2007-02-19 10:01:21 51°12.593 2°36.993 7.7514 3.491005 32.415825 -2.871232
2007-02-19 10:02:21 51°12.8 2°37.052 7.7499 3.490384 32.410309 -2.871232
2007-02-19 10:03:21 51°13.003 2°37.116 7.7475 3.490384 32.414771 -2.871232
2007-02-19 10:04:21 51°13.21 2°37.176 7.7493 3.490902 32.417434 -2.871232
2007-02-19 10:05:21 51°13.416 2°37.234 7.7485 3.491212 32.421531 -2.871232
2007-02-19 10:06:21 51°13.624 2°37.155 7.7651 3.490177 32.41442 -2.871232
2007-02-19 10:07:21 51°13.845 2°37.072 7.7795 3.499497 32.487317 -2.871232
2007-02-19 10:08:21 51°14.059 2°36.993 7.8024 3.5083 32.556604 -2.871232
2007-02-19 10:09:21 51°14.272 2°36.921 7.8166 3.513996 32.602778 -2.871232
2007-02-19 10:10:21 51°14.484 2°36.855 7.8207 3.517517 32.628312 -2.871232
2007-02-19 10:11:21 51°14.697 2°36.785 7.827 3.519588 32.642482 -2.871232
2007-02-19 10:12:21 51°14.916 2°36.722 7.8284 3.521142 32.653108 -2.871232
2007-02-19 10:13:21 51°15.135 2°36.663 7.8405 3.522591 32.664458 -2.871232
2007-02-19 10:14:21 51°15.353 2°36.611 7.8421 3.524248 32.677043 -2.871232
2007-02-19 10:15:21 51°15.572 2°36.564 7.8484 3.526113 32.692657 -2.871232
2007-02-19 10:16:21 51°15.79 2°36.516 7.8715 3.530877 32.729159 -2.871232
2007-02-19 10:17:21 51°16.004 2°36.458 7.8765 3.536055 32.762717 -2.871232
2007-02-19 10:18:21 51°16.214 2°36.41 7.9223 3.540716 32.798112 -2.871232
2007-02-19 10:19:21 51°16.371 2°36.505 7.9323 3.546515 32.812837 -2.871232
2007-02-19 10:20:21 51°16.438 2°36.6 7.9355 3.548794 32.835368 -2.871232
2007-02-19 10:21:21 51°16.481 2°36.651 7.941 3.549933 32.840789 -2.871232
2007-02-19 10:22:21 51°16.512 2°36.687 7.9427 3.550555 32.84628 -2.871232
2007-02-19 10:23:21 51°16.544 2°36.729 7.9445 3.551072 32.852503 -2.871232
2007-02-19 10:24:21 51°16.577 2°36.77 7.944 3.55159 32.85513 -2.871232
2007-02-19 10:25:21 51°16.608 2°36.804 7.9482 3.552212 32.85972 -2.871232
2007-02-19 10:26:21 51°16.618 2°36.799 7.9491 3.552833 32.860713 -2.871232
2007-02-19 10:27:21 51°16.623 2°36.79 7.9563 3.553455 32.863503 -2.871232
2007-02-19 10:28:21 51°16.622 2°36.783 7.9564 3.553869 32.867762 -2.871232
2007-02-19 10:29:21 51°16.617 2°36.775 7.961 3.554387 32.868588 -2.871232
2007-02-19 10:30:21 51°16.614 2°36.781 7.9572 3.554905 32.870313 -2.871232
2007-02-19 10:31:21 51°16.68 2°36.779 7.9626 3.554697 32.872681 -2.871232
2007-02-19 10:32:21 51°16.846 2°36.636 7.9794 3.555008 32.867781 -2.871232
2007-02-19 10:33:21 51°17.019 2°36.407 7.9909 3.556251 32.876056 -2.871232
2007-02-19 10:34:21 51°17.166 2°36.128 8.0128 3.560808 32.898592 -2.871232
2007-02-19 10:35:21 51°17.305 2°35.838 8.0322 3.565158 32.918978 -2.871232
2007-02-19 10:36:21 51°17.447 2°35.556 8.0453 3.568162 32.93362 -2.871232
2007-02-19 10:37:21 51°17.583 2°35.264 8.0566 3.57044 32.94531 -2.871232
2007-02-19 10:38:21 51°17.7 2°34.943 8.0663 3.57189 32.952092 -2.871232
2007-02-19 10:39:21 51°17.818 2°34.619 8.0805 3.57334 32.955277 -2.871232
2007-02-19 10:40:21 51°17.934 2°34.292 8.0886 3.574169 32.955684 -2.871232
2007-02-19 10:41:21 51°18.053 2°33.967 8.0947 3.575722 32.95903 -2.871232
2007-02-19 10:42:21 51°18.172 2°33.644 8.0897 3.57479 32.94858 -2.871232
2007-02-19 10:43:21 51°18.287 2°33.32 8.0917 3.573547 32.944823 -2.871232
2007-02-19 10:44:21 51°18.405 2°33 8.0869 3.573547 32.946619 -2.871232
2007-02-19 10:45:21 51°18.519 2°32.678 8.0871 3.574169 32.948498 -2.871232
2007-02-19 10:46:21 51°18.63 2°32.353 8.0846 3.574272 32.948661 -2.871232
2007-02-19 10:47:21 51°18.743 2°32.027 8.0767 3.573547 32.949314 -2.871232
2007-02-19 10:48:21 51°18.855 2°31.699 8.0774 3.572822 32.944577 -2.871232
2007-02-19 10:49:21 51°18.965 2°31.369 8.099 3.573754 32.952336 -2.871232
2007-02-19 10:50:21 51°19.081 2°31.048 8.1318 3.579865 32.98441 -2.871232
2007-02-19 10:51:21 51°19.2 2°30.729 8.1439 3.585251 33.018005 -2.871232
2007-02-19 10:52:21 51°19.323 2°30.416 8.1612 3.588359 33.033639 -2.871232
2007-02-19 10:53:21 51°19.448 2°30.108 8.1732 3.591259 33.050738 -2.871232
2007-02-19 10:54:21 51°19.569 2°29.825 8.1925 3.59333 33.062047 -2.871232
2007-02-19 10:55:21 51°19.677 2°29.757 8.1888 3.594159 33.057044 -2.871232
2007-02-19 10:56:21 51°19.76 2°29.712 8.1858 3.59447 33.067411 -2.871232
2007-02-19 10:57:21 51°19.823 2°29.745 8.1906 3.596127 33.071779 -2.871232
2007-02-19 10:58:21 51°19.882 2°29.81 8.1925 3.596023 33.072517 -2.871232
2007-02-19 10:59:21 51°19.935 2°29.897 8.1908 3.596334 33.077492 -2.871232
2007-02-19 11:00:21 51°19.983 2°29.97 8.1888 3.596645 33.079772 -2.871232
2007-02-19 11:01:22 51°20.011 2°30.027 8.1933 3.597266 33.082532 -2.871232
2007-02-19 11:02:22 51°20.015 2°30.042 8.1927 3.597888 33.087089 -2.871232
2007-02-19 11:03:21 51°20.017 2°30.054 8.1969 3.598509 33.088051 -2.871232
2007-02-19 11:04:22 51°20.019 2°30.067 8.1985 3.598717 33.08927 -2.871232
2007-02-19 11:05:21 51°20.019 2°30.088 8.2016 3.599027 33.09065 -2.871232
2007-02-19 11:06:21 51°20.051 2°30.16 8.2091 3.599442 33.092189 -2.871232
2007-02-19 11:07:21 51°20.197 2°30.248 8.2078 3.599856 33.09283 -2.871232
2007-02-19 11:08:21 51°20.378 2°30.449 8.2181 3.601099 33.097447 -2.871232
2007-02-19 11:09:21 51°20.551 2°30.673 8.2082 3.600581 33.091255 -2.871232
2007-02-19 11:10:21 51°20.724 2°30.896 8.2173 3.599234 33.081985 -2.871232
2007-02-19 11:11:21 51°20.896 2°31.117 8.2235 3.597784 33.059085 -2.871232
2007-02-19 11:12:21 51°21.067 2°31.335 8.238 3.597266 33.049307 -2.871232
2007-02-19 11:13:21 51°21.235 2°31.549 8.2476 3.59913 33.059382 -2.871232
2007-02-19 11:14:21 51°21.405 2°31.761 8.2757 3.602238 33.069587 -2.871232
2007-02-19 11:15:21 51°21.574 2°31.974 8.2871 3.608349 33.106848 -2.871232
2007-02-19 11:16:21 51°21.746 2°32.187 8.3092 3.613528 33.140842 -2.871232
2007-02-19 11:17:21 51°21.919 2°32.399 8.3422 3.618915 33.176922 -2.871232
2007-02-19 11:18:22 51°22.094 2°32.611 8.3615 3.625337 33.216346 -2.871232
2007-02-19 11:19:22 51°22.267 2°32.82 8.3677 3.629377 33.240442 -2.871232
2007-02-19 11:20:22 51°22.438 2°33.03 8.3749 3.631449 33.250764 -2.871232
2007-02-19 11:21:21 51°22.608 2°33.234 8.3937 3.63321 33.261512 -2.871232
2007-02-19 11:22:22 51°22.784 2°33.447 8.4022 3.635903 33.270966 -2.871232
2007-02-19 11:23:21 51°22.953 2°33.651 8.4166 3.638079 33.290415 -2.871232
2007-02-19 11:24:21 51°23.126 2°33.862 8.4285 3.642222 33.317308 -2.871232
2007-02-19 11:25:22 51°23.301 2°34.075 8.4453 3.645744 33.341458 -2.871232
2007-02-19 11:26:21 51°23.469 2°34.28 8.458 3.648127 33.352206 -2.871232
2007-02-19 11:27:21 51°23.596 2°34.55 8.478 3.64823 33.332588 -2.871232
2007-02-19 11:28:21 51°23.619 2°34.901 8.4612 3.649163 33.331287 -2.871232
2007-02-19 11:29:21 51°23.628 2°35.259 8.4589 3.648334 33.338132 -2.871232
2007-02-19 11:30:21 51°23.639 2°35.616 8.438 3.647091 33.330884 -2.871232
2007-02-19 11:31:21 51°23.687 2°35.961 8.4243 3.644605 33.328965 -2.871232
2007-02-19 11:32:21 51°23.764 2°36.296 8.4224 3.642637 33.314333 -2.871232
2007-02-19 11:33:22 51°23.84 2°36.639 8.4099 3.640254 33.300873 -2.871232
2007-02-19 11:34:22 51°23.913 2°36.978 8.4143 3.640565 33.307632 -2.871232
2007-02-19 11:35:22 51°23.983 2°37.32 8.4071 3.640047 33.303259 -2.871232
2007-02-19 11:36:22 51°24.056 2°37.66 8.4045 3.639322 33.301271 -2.871232
2007-02-19 11:37:22 51°24.136 2°37.999 8.4135 3.640668 33.312282 -2.871232
2007-02-19 11:38:22 51°24.218 2°38.336 8.4201 3.641497 33.314424 -2.871232
2007-02-19 11:39:22 51°24.3 2°38.672 8.4106 3.642326 33.320161 -2.871232
2007-02-19 11:40:22 51°24.384 2°39.008 8.404 3.640772 33.312438 -2.871232
2007-02-19 11:41:22 51°24.467 2°39.346 8.3849 3.638389 33.293578 -2.871232
2007-02-19 11:42:22 51°24.555 2°39.687 8.378 3.635075 33.276906 -2.871232
2007-02-19 11:43:22 51°24.643 2°40.029 8.3423 3.631656 33.260064 -2.871232
2007-02-19 11:44:22 51°24.733 2°40.373 8.3224 3.625648 33.224904 -2.871232
2007-02-19 11:45:22 51°24.822 2°40.72 8.3057 3.621712 33.203645 -2.871232
2007-02-19 11:46:22 51°24.91 2°41.068 8.2986 3.619226 33.193567 -2.871232
2007-02-19 11:47:22 51°25 2°41.415 8.2945 3.617568 33.184748 -2.871232
2007-02-19 11:48:22 51°25.091 2°41.763 8.2873 3.616429 33.179413 -2.871232
2007-02-19 11:49:22 51°25.176 2°42.114 8.2754 3.615393 33.169742 -2.871232
2007-02-19 11:50:22 51°25.247 2°42.472 8.2738 3.614357 33.164563 -2.871232
2007-02-19 11:51:22 51°25.313 2°42.835 8.267 3.612286 33.153303 -2.871232
2007-02-19 11:52:22 51°25.38 2°43.2 8.2575 3.610836 33.146586 -2.871232
2007-02-19 11:53:22 51°25.449 2°43.563 8.2562 3.609385 33.13807 -2.871232
2007-02-19 11:54:22 51°25.517 2°43.927 8.247 3.609385 33.139867 -2.871232
2007-02-19 11:55:22 51°25.584 2°44.291 8.2435 3.608764 33.141608 -2.871232
2007-02-19 11:56:22 51°25.65 2°44.655 8.2375 3.606589 33.126581 -2.871232
2007-02-19 11:57:22 51°25.718 2°45.019 8.232 3.607417 33.135045 -2.871232
2007-02-19 11:58:22 51°25.786 2°45.381 8.2362 3.606692 33.132133 -2.871232
2007-02-19 11:59:22 51°25.854 2°45.747 8.2315 3.606278 33.135092 -2.871232
2007-02-19 12:00:22 51°25.923 2°46.111 8.2177 3.607935 33.154727 -2.871232
2007-02-19 12:01:22 51°25.991 2°46.478 8.2224 3.606175 33.141229 -2.871232
2007-02-19 12:02:22 51°26.051 2°46.851 8.2134 3.605553 33.140275 -2.871232
2007-02-19 12:03:22 51°26.106 2°47.226 8.2027 3.605346 33.144456 -2.871232
2007-02-19 12:04:22 51°26.137 2°47.608 8.1873 3.604517 33.142284 -2.871232
2007-02-19 12:05:22 51°26.155 2°47.993 8.1667 3.604207 33.159821 -2.871232
2007-02-19 12:06:22 51°26.155 2°48.378 8.145 3.60255 33.159988 -2.871232
2007-02-19 12:07:22 51°26.121 2°48.683 8.1261 3.599028 33.146474 -2.871232
2007-02-19 12:08:22 51°26.045 2°48.746 8.0944 3.596542 33.145367 -2.871232
2007-02-19 12:09:22 51°26.019 2°48.685 8.0982 3.596439 33.161463 -2.871232
2007-02-19 12:10:21 51°26.02 2°48.596 8.1072 3.595714 33.161257 -2.871232
2007-02-19 12:11:21 51°26.007 2°48.531 8.1095 3.596024 33.146378 -2.871232
2007-02-19 12:12:22 51°25.999 2°48.497 8.1308 3.597682 33.157947 -2.871232
2007-02-19 12:13:22 51°25.998 2°48.493 8.1282 3.599028 33.157301 -2.871232
2007-02-19 12:14:22 51°25.999 2°48.499 8.1241 3.598925 33.158947 -2.871232
2007-02-19 12:15:22 51°26.005 2°48.512 8.1245 3.598303 33.160704 -2.871232
2007-02-19 12:16:22 51°26.011 2°48.525 8.1259 3.598614 33.159374 -2.871232
2007-02-19 12:17:22 51°25.982 2°48.529 8.1288 3.599132 33.160167 -2.871232
2007-02-19 12:18:22 51°25.959 2°48.652 8.1236 3.598925 33.158947 -2.871232
2007-02-19 12:19:21 51°26.02 2°48.921 8.1266 3.599132 33.156557 -2.871232
2007-02-19 12:20:21 51°26.075 2°49.308 8.1032 3.598303 33.154385 -2.871232
2007-02-19 12:21:21 51°26.124 2°49.703 8.0593 3.594885 33.150952 -2.871232
2007-02-19 12:22:22 51°26.179 2°50.104 8.0225 3.589396 33.138011 -2.871232
2007-02-19 12:23:22 51°26.235 2°50.498 7.9909 3.58401 33.118875 -2.871232
2007-02-19 12:24:21 51°26.291 2°50.89 7.9744 3.581006 33.111532 -2.871232
2007-02-19 12:25:21 51°26.354 2°51.289 7.9568 3.578624 33.0979 -2.871232
2007-02-19 12:26:21 51°26.419 2°51.683 7.9254 3.573549 33.079189 -2.871232
2007-02-19 12:27:21 51°26.485 2°52.078 7.8887 3.568992 33.059443 -2.871232
2007-02-19 12:28:21 51°26.551 2°52.471 7.8649 3.564745 33.04469 -2.871232
2007-02-19 12:29:21 51°26.628 2°52.86 7.8419 3.561535 33.031533 -2.871232
2007-02-19 12:30:21 51°26.706 2°53.25 7.8353 3.558635 33.022477 -2.871232
2007-02-19 12:31:21 51°26.786 2°53.635 7.8274 3.556978 33.015356 -2.871232
2007-02-19 12:32:21 51°26.868 2°54.013 7.6108 3.53326 32.861035 -2.871232
2007-02-19 12:33:21 51°26.952 2°54.393 7.5497 3.495564 32.619986 -2.871232
2007-02-19 12:34:21 51°27.033 2°54.774 7.553 3.48935 32.58534 -2.871232
2007-02-19 12:35:21 51°27.114 2°55.153 7.527 3.492354 32.611976 -2.871232
2007-02-19 12:36:22 51°27.19 2°55.543 7.5086 3.480652 32.529365 -2.871232
2007-02-19 12:37:21 51°27.266 2°55.917 7.511 3.479202 32.520629 -2.871232
2007-02-19 12:38:21 51°27.344 2°56.301 7.5056 3.478063 32.516919 -2.871232
2007-02-19 12:39:21 51°27.426 2°56.683 7.5055 3.483551 32.56217 -2.871232
2007-02-19 12:40:22 51°27.564 2°57.037 7.5126 3.483655 32.571373 -2.871232
2007-02-19 12:41:22 51°27.708 2°57.375 7.5071 3.484484 32.573652 -2.871232
2007-02-19 12:42:21 51°27.841 2°57.716 7.4874 3.481895 32.551287 -2.871232
2007-02-19 12:43:22 51°27.909 2°58.109 7.4749 3.474231 32.49156 -2.871232
2007-02-19 12:44:22 51°27.936 2°58.508 7.4657 3.47185 32.480344 -2.871232
2007-02-19 12:45:22 51°27.988 2°58.907 7.466 3.468329 32.452779 -2.871232
2007-02-19 12:46:22 51°28.04 2°59.309 7.4693 3.47185 32.481246 -2.871232
2007-02-19 12:47:22 51°28.091 2°59.712 7.4812 3.472575 32.489679 -2.871232
2007-02-19 12:48:22 51°28.143 3°0.115 7.4706 3.474749 32.508664 -2.871232
2007-02-19 12:49:22 51°28.195 3°0.518 7.4691 3.469054 32.456705 -2.871232
2007-02-19 12:50:22 51°28.248 3°0.92 7.4671 3.468225 32.449901 -2.871232
2007-02-19 12:51:22 51°28.292 3°1.326 7.4585 3.468225 32.451703 -2.871232
2007-02-19 12:52:22 51°28.336 3°1.733 7.4491 3.463151 32.409788 -2.871232
2007-02-19 12:53:22 51°28.382 3°2.141 7.4478 3.461909 32.402276 -2.871232
2007-02-19 12:54:22 51°28.421 3°2.548 7.449 3.461495 32.400672 -2.871232
2007-02-19 12:55:22 51°28.443 3°2.957 7.3816 3.453521 32.3268 -2.871232
2007-02-19 12:56:22 51°28.453 3°3.342 7.3264 3.420076 32.049848 -2.871232
2007-02-19 12:57:22 51°28.46 3°3.646 7.3449 3.413449 32.006793 -2.871232
2007-02-19 12:58:22 51°28.42 3°3.814 7.382 3.425771 32.102822 -2.871232
2007-02-19 12:59:22 51°28.377 3°3.822 7.3813 3.435297 32.185785 -2.871232
2007-02-19 13:00:22 51°28.364 3°3.751 7.3779 3.434365 32.180572 -2.871232
2007-02-19 13:01:22 51°28.333 3°3.666 7.3725 3.431051 32.145218 -2.871232
2007-02-19 13:02:22 51°28.306 3°3.576 7.351 3.4237 32.085752 -2.871232
2007-02-19 13:03:22 51°28.29 3°3.531 7.3676 3.417487 32.041669 -2.871232
2007-02-19 13:04:22 51°28.279 3°3.501 7.3388 3.415002 32.011355 -2.871232
2007-02-19 13:05:22 51°28.271 3°3.481 7.3482 3.413553 31.994494 -2.871232
2007-02-19 13:06:22 51°28.285 3°3.489 7.3454 3.413035 31.997133 -2.871232
2007-02-19 13:07:21 51°28.303 3°3.503 7.3416 3.413449 32.00055 -2.871232
2007-02-19 13:08:22 51°28.322 3°3.524 7.3468 3.41376 32.001998 -2.871232
2007-02-19 13:09:22 51°28.342 3°3.549 7.3412 3.413656 32.006272 -2.871232
2007-02-19 13:10:22 51°28.358 3°3.563 7.3452 3.413656 32.008056 -2.871232
2007-02-19 13:11:22 51°28.332 3°3.582 7.3402 3.413656 32.012517 -2.871232
2007-02-19 13:12:22 51°28.286 3°3.771 7.3625 3.41376 32.010918 -2.871232
2007-02-19 13:13:21 51°28.173 3°4.087 7.3678 3.417073 32.01684 -2.871232
2007-02-19 13:14:21 51°28.049 3°4.415 7.3609 3.419972 32.052342 -2.871232
2007-02-19 13:15:22 51°27.92 3°4.749 7.3622 3.423078 32.083758 -2.871232
2007-02-19 13:16:21 51°27.796 3°5.079 7.3656 3.427013 32.116639 -2.871232
2007-02-19 13:17:21 51°27.671 3°5.414 7.3725 3.426081 32.108734 -2.871232
2007-02-19 13:18:21 51°27.551 3°5.756 7.3669 3.425771 32.102822 -2.871232
2007-02-19 13:19:21 51°27.433 3°6.099 7.3708 3.42546 32.101379 -2.871232
2007-02-19 13:20:21 51°27.32 3°6.448 7.3727 3.428877 32.13513 -2.871232
2007-02-19 13:21:21 51°27.205 3°6.792 7.36 3.429498 32.138013 -2.871232
2007-02-19 13:22:21 51°27.09 3°7.134 7.3487 3.42546 32.107637 -2.871232
2007-02-19 13:23:21 51°26.97 3°7.471 7.3311 3.419558 32.059643 -2.871232
2007-02-19 13:24:21 51°26.851 3°7.809 7.3077 3.410964 31.994315 -2.871232
2007-02-19 13:25:21 51°26.732 3°8.149 7.2839 3.400714 31.909005 -2.871232
2007-02-19 13:26:21 51°26.612 3°8.486 7.2554 3.392431 31.843226 -2.871232
2007-02-19 13:27:21 51°26.491 3°8.8 7.5527 3.384562 31.775496 -2.871232
2007-02-19 13:28:21 51°26.402 3°8.81 7.2408 3.381352 31.725237 -2.871232
2007-02-19 13:29:21 51°26.415 3°8.709 7.2291 3.374209 31.68717 -2.871232
2007-02-19 13:30:21 51°26.432 3°8.565 7.2477 3.373174 31.686128 -2.871232
2007-02-19 13:31:21 51°26.439 3°8.474 7.2486 3.37452 31.700151 -2.871232
2007-02-19 13:32:21 51°26.444 3°8.407 7.2365 3.37628 31.711398 -2.871232
2007-02-19 13:33:21 51°26.447 3°8.35 7.2399 3.377522 31.719021 -2.871232
2007-02-19 13:34:21 51°26.456 3°8.314 7.239 3.37804 31.726187 -2.871232
2007-02-19 13:35:21 51°26.47 3°8.319 7.2508 3.378454 31.734049 -2.871232
2007-02-19 13:36:21 51°26.487 3°8.329 7.2567 3.379282 31.735582 -2.871232
2007-02-19 13:37:21 51°26.503 3°8.34 7.2595 3.380317 31.739272 -2.871232
2007-02-19 13:38:21 51°26.49 3°8.314 7.2514 3.380524 31.742315 -2.871232
2007-02-19 13:39:21 51°26.427 3°8.394 7.2499 3.379903 31.745602 -2.871232
2007-02-19 13:40:21 51°26.314 3°8.675 7.2386 3.378868 31.737477 -2.871232
2007-02-19 13:41:21 51°26.242 3°9.043 7.2255 3.375659 31.708472 -2.871232
2007-02-19 13:42:21 51°26.19 3°9.426 7.2202 3.371207 31.668291 -2.871232
2007-02-19 13:43:21 51°26.127 3°9.805 7.2017 3.365305 31.623615 -2.871232
2007-02-19 13:44:21 51°26.062 3°10.182 7.1859 3.35868 31.569588 -2.871232
2007-02-19 13:45:21 51°25.994 3°10.559 7.1809 3.354021 31.528093 -2.871232
2007-02-19 13:46:21 51°25.932 3°10.937 7.1741 3.352882 31.514458 -2.871232
2007-02-19 13:47:21 51°25.87 3°11.314 7.1842 3.352261 31.511513 -2.871232
2007-02-19 13:48:21 51°25.805 3°11.687 7.1811 3.350087 31.494143 -2.871232
2007-02-19 13:49:21 51°25.749 3°12.064 7.1329 3.339838 31.403159 -2.871232
2007-02-19 13:50:21 51°25.742 3°12.454 7.1296 3.32845 31.313428 -2.871232
2007-02-19 13:51:22 51°25.749 3°12.854 7.1465 3.326173 31.287924 -2.871232
2007-02-19 13:52:22 51°25.753 3°13.249 7.1538 3.331038 31.329879 -2.871232
2007-02-19 13:53:22 51°25.773 3°13.641 7.1775 3.340563 31.415114 -2.871232
2007-02-19 13:54:22 51°25.811 3°14.028 7.1781 3.347499 31.471572 -2.871232
2007-02-19 13:55:22 51°25.848 3°14.415 7.172 3.345946 31.457147 -2.871232
2007-02-19 13:56:22 51°25.882 3°14.804 7.1653 3.343254 31.437014 -2.871232
2007-02-19 13:57:22 51°25.914 3°15.193 7.164 3.344496 31.449966 -2.871232
2007-02-19 13:58:22 51°25.946 3°15.579 7.1133 3.333937 31.361861 -2.871232
2007-02-19 13:59:22 51°25.979 3°15.966 7.0768 3.309506 31.149138 -2.871232
2007-02-19 14:00:22 51°26.012 3°16.354 7.0551 3.29812 31.055671 -2.871232
2007-02-19 14:01:22 51°26.046 3°16.743 7.0378 3.29046 30.989688 -2.871232
2007-02-19 14:02:22 51°26.067 3°17.132 6.9889 3.271 30.820486 -2.871232
2007-02-19 14:03:22 51°26.082 3°17.524 6.9557 3.251955 30.659739 -2.871232
2007-02-19 14:04:22 51°26.095 3°17.917 6.9519 3.243571 30.590311 -2.871232
2007-02-19 14:05:22 51°26.052 3°18.138 6.9397 3.240155 30.546034 -2.871232
2007-02-19 14:06:22 51°25.989 3°18.152 6.9437 3.23674 30.534471 -2.871232
2007-02-19 14:07:22 51°25.971 3°18.07 6.9511 3.245952 30.622079 -2.871232
2007-02-19 14:08:21 51°25.942 3°17.967 6.9632 3.250816 30.663398 -2.871232
2007-02-19 14:09:21 51°25.917 3°17.873 6.9712 3.255577 30.705352 -2.871232
2007-02-19 14:10:21 51°25.909 3°17.81 6.9756 3.260339 30.749895 -2.871232
2007-02-19 14:11:22 51°25.908 3°17.79 6.9854 3.263237 30.777571 -2.871232
2007-02-19 14:12:21 51°25.915 3°17.789 6.9896 3.264997 30.789016 -2.871232
2007-02-19 14:13:21 51°25.923 3°17.792 6.9966 3.266032 30.798961 -2.871232
2007-02-19 14:14:21 51°25.928 3°17.789 6.9969 3.267584 30.805636 -2.871232
2007-02-19 14:15:21 51°25.93 3°17.715 6.9827 3.267791 30.807798 -2.871232
2007-02-19 14:16:22 51°25.852 3°17.711 6.9883 3.266446 30.806756 -2.871232
2007-02-19 14:17:21 51°25.664 3°17.735 7.0311 3.271414 30.823073 -2.871232
2007-02-19 14:18:21 51°25.45 3°17.718 7.0633 3.288079 30.98923 -2.871232
2007-02-19 14:19:21 51°25.237 3°17.693 7.1012 3.300914 31.070871 -2.871232
2007-02-19 14:20:21 51°25.018 3°17.678 7.113 3.292219 30.963674 -2.871232
2007-02-19 14:21:21 51°24.798 3°17.664 7.14 3.298016 31.008427 -2.871232
2007-02-19 14:22:21 51°24.58 3°17.682 7.1606 3.301017 31.016217 -2.871232
2007-02-19 14:23:21 51°24.369 3°17.652 7.1185 3.306814 31.062652 -2.871232
2007-02-19 14:24:21 51°24.149 3°17.635 7.1198 3.26396 30.664223 -2.871232
2007-02-19 14:25:21 51°23.931 3°17.618 7.1086 3.267686 30.701278 -2.871232
2007-02-19 14:26:21 51°23.744 3°17.524 7.1367 3.267686 30.691807 -2.871232
2007-02-19 14:27:21 51°23.673 3°17.239 7.0829 3.257543 30.607759 -2.871232
2007-02-19 14:28:21 51°23.598 3°16.944 7.0763 3.245226 30.503589 -2.871232
2007-02-19 14:29:21 51°23.521 3°16.651 7.0768 3.247296 30.523422 -2.871232
2007-02-19 14:30:21 51°23.446 3°16.357 7.0915 3.249676 30.544772 -2.871232
2007-02-19 14:31:21 51°23.373 3°16.062 7.0847 3.251022 30.554488 -2.871232
2007-02-19 14:32:21 51°23.3 3°15.776 7.0766 3.251332 30.559436 -2.871232
2007-02-19 14:33:21 51°23.226 3°15.495 7.0697 3.250504 30.555965 -2.871232
2007-02-19 14:34:21 51°23.154 3°15.212 7.0831 3.252989 30.57925 -2.871232
2007-02-19 14:35:21 51°23.081 3°14.928 7.0746 3.253817 30.589589 -2.871232
2007-02-19 14:36:21 51°23.008 3°14.643 7.0527 3.24595 30.51713 -2.871232
2007-02-19 14:37:21 51°22.93 3°14.361 7.0381 3.233013 30.398699 -2.871232
2007-02-19 14:38:21 51°22.854 3°14.078 7.0268 3.221628 30.292979 -2.871232
2007-02-19 14:39:21 51°22.779 3°13.805 7.0077 3.210554 30.190466 -2.871232
2007-02-19 14:40:21 51°22.709 3°13.56 6.9975 3.201653 30.108853 -2.871232
2007-02-19 14:41:21 51°22.652 3°13.392 6.9938 3.197514 30.077619 -2.871232
2007-02-19 14:42:21 51°22.623 3°13.286 6.9893 3.196686 30.069 -2.871232
2007-02-19 14:43:21 51°22.606 3°13.218 6.9856 3.193891 30.044142 -2.871232
2007-02-19 14:44:22 51°22.599 3°13.2 6.9902 3.190994 30.017359 -2.871232
2007-02-19 14:45:21 51°22.608 3°13.214 6.989 3.189648 30.002509 -2.871232
2007-02-19 14:46:21 51°22.619 3°13.235 6.9933 3.187371 29.978812 -2.871232
2007-02-19 14:47:21 51°22.631 3°13.261 7.0146 3.187992 29.977679 -2.871232
2007-02-19 14:48:21 51°22.624 3°13.239 7.0022 3.188717 29.97931 -2.871232
2007-02-19 14:49:21 51°22.598 3°13.088 7.0002 3.188303 29.976691 -2.871232
2007-02-19 14:50:21 51°22.59 3°12.794 6.9879 3.183439 29.940415 -2.871232
2007-02-19 14:51:21 51°22.57 3°12.486 6.9709 3.178885 29.899768 -2.871232
2007-02-19 14:52:21 51°22.515 3°12.191 6.9695 3.177333 29.88698 -2.871232
2007-02-19 14:53:21 51°22.448 3°11.899 6.9645 3.175367 29.869041 -2.871232
2007-02-19 14:54:21 51°22.383 3°11.602 6.9702 3.17754 29.89587 -2.871232
2007-02-19 14:55:22 51°22.316 3°11.297 6.9713 3.176505 29.883414 -2.871232
2007-02-19 14:56:21 51°22.256 3°10.996 6.9724 3.178161 29.899807 -2.871232
2007-02-19 14:57:21 51°22.215 3°10.678 6.9709 3.18199 29.939668 -2.871232
2007-02-19 14:58:21 51°22.174 3°10.358 6.9825 3.183749 29.957141 -2.871232
2007-02-19 14:59:22 51°22.132 3°10.035 6.9802 3.186958 29.981256 -2.871232
2007-02-19 15:00:21 51°22.094 3°9.718 6.9818 3.18882 29.996425 -2.871232
2007-02-19 15:01:21 51°22.063 3°9.393 6.9898 3.191925 30.028746 -2.871232
2007-02-19 15:02:21 51°22.037 3°9.07 7.0058 3.197514 30.075079 -2.871232
2007-02-19 15:03:22 51°22.009 3°8.742 7.0146 3.202171 30.114239 -2.871232
2007-02-19 15:04:21 51°21.981 3°8.421 7.0128 3.204758 30.143715 -2.871232
2007-02-19 15:05:21 51°21.955 3°8.094 7.0197 3.208277 30.172709 -2.871232
2007-02-19 15:06:21 51°21.925 3°7.769 7.0308 3.214073 30.223694 -2.871232
2007-02-19 15:07:21 51°21.896 3°7.446 7.0435 3.222559 30.305232 -2.871232
2007-02-19 15:08:21 51°21.857 3°7.131 7.0536 3.23322 30.397437 -2.871232
2007-02-19 15:09:21 51°21.816 3°6.815 7.0505 3.230529 30.376256 -2.871232
2007-02-19 15:10:21 51°21.773 3°6.5 7.0417 3.228148 30.353182 -2.871232
2007-02-19 15:11:21 51°21.733 3°6.185 7.0314 3.227838 30.354216 -2.871232
2007-02-19 15:12:21 51°21.692 3°5.869 7.0263 3.225664 30.339265 -2.871232
2007-02-19 15:13:21 51°21.638 3°5.559 7.0219 3.223801 30.322425 -2.871232
2007-02-19 15:14:21 51°21.584 3°5.249 7.0257 3.223077 30.315734 -2.871232
2007-02-19 15:15:21 51°21.531 3°4.938 7.0233 3.221007 30.295885 -2.871232
2007-02-19 15:16:21 51°21.477 3°4.628 7.0296 3.221628 30.298942 -2.871232
2007-02-19 15:17:21 51°21.425 3°4.319 7.0384 3.224215 30.32503 -2.871232
2007-02-19 15:18:21 51°21.368 3°4.011 7.0401 3.22908 30.364586 -2.871232
2007-02-19 15:19:21 51°21.311 3°3.702 7.0555 3.233944 30.409252 -2.871232
2007-02-19 15:20:21 51°21.254 3°3.392 7.0692 3.238912 30.449855 -2.871232
2007-02-19 15:21:21 51°21.192 3°3.083 7.0774 3.24357 30.479505 -2.871232
2007-02-19 15:22:21 51°21.133 3°2.774 7.0995 3.244191 30.484255 -2.871232
2007-02-19 15:23:21 51°21.074 3°2.464 7.1071 3.251539 30.544439 -2.871232
2007-02-19 15:24:21 51°21.009 3°2.166 7.1305 3.260234 30.620298 -2.871232
2007-02-19 15:25:21 51°20.944 3°1.862 7.132 3.269446 30.701505 -2.871232
2007-02-19 15:26:21 51°20.878 3°1.557 7.1237 3.269963 30.711193 -2.871232
2007-02-19 15:27:21 51°20.809 3°1.253 7.1365 3.269446 30.707531 -2.871232
2007-02-19 15:28:21 51°20.743 3°0.945 7.1502 3.271205 30.713781 -2.871232
2007-02-19 15:29:21 51°20.676 3°0.638 7.1683 3.274414 30.737679 -2.871232
2007-02-19 15:30:21 51°20.612 3°0.33 7.1808 3.281039 30.78501 -2.871232
2007-02-19 15:31:21 51°20.537 3°0.029 7.2085 3.286835 30.835773 -2.871232
2007-02-19 15:32:21 51°20.464 2°59.721 7.2144 3.293253 30.880013 -2.871232
2007-02-19 15:33:21 51°20.393 2°59.414 7.2335 3.296979 30.908357 -2.871232
2007-02-19 15:34:21 51°20.322 2°59.106 7.2745 3.302983 30.952555 -2.871232
2007-02-19 15:35:21 51°20.252 2°58.8 7.3395 3.319856 31.083536 -2.871232
2007-02-19 15:36:21 51°20.183 2°58.495 7.395 3.35112 31.341723 -2.871232
2007-02-19 15:37:21 51°20.113 2°58.19 7.4393 3.369652 31.487496 -2.871232
2007-02-19 15:38:21 51°20.043 2°57.883 7.5042 3.389633 31.651532 -2.871232
2007-02-19 15:39:21 51°19.972 2°57.574 7.5529 3.412101 31.826919 -2.871232
2007-02-19 15:40:21 51°19.898 2°57.263 7.6116 3.433327 31.997922 -2.871232
2007-02-19 15:41:21 51°19.829 2°56.949 7.6542 3.454865 32.167384 -2.871232
2007-02-19 15:42:21 51°19.76 2°56.635 7.6727 3.468845 32.279811 -2.871232
2007-02-19 15:43:21 51°19.688 2°56.322 7.692 3.478165 32.355583 -2.871232
2007-02-19 15:44:21 51°19.614 2°56.01 7.7116 3.485103 32.412064 -2.871232
2007-02-19 15:45:21 51°19.539 2°55.698 7.7498 3.493802 32.478638 -2.871232
2007-02-19 15:46:21 51°19.467 2°55.386 7.7779 3.509854 32.60669 -2.871232
2007-02-19 15:47:21 51°19.397 2°55.074 7.7862 3.516274 32.651393 -2.871232
2007-02-19 15:48:21 51°19.328 2°54.761 7.7932 3.515756 32.636176 -2.871232
2007-02-19 15:49:21 51°19.258 2°54.449 7.8008 3.513478 32.610886 -2.871232
2007-02-19 15:50:21 51°19.188 2°54.136 7.8138 3.515135 32.615416 -2.871232
2007-02-19 15:51:21 51°19.118 2°53.822 7.831 3.520106 32.652303 -2.871232
2007-02-19 15:52:21 51°19.048 2°53.508 7.8377 3.523524 32.675856 -2.871232
2007-02-19 15:53:21 51°18.978 2°53.195 7.8492 3.526009 32.694284 -2.871232
2007-02-19 15:54:21 51°18.907 2°52.882 7.8566 3.528598 32.709283 -2.871232
2007-02-19 15:55:21 51°18.839 2°52.565 7.8583 3.530566 32.724162 -2.871232
2007-02-19 15:56:21 51°18.768 2°52.249 7.866 3.532016 32.733705 -2.871232
2007-02-19 15:57:21 51°18.711 2°51.975 7.8633 3.532223 32.733144 -2.871232
2007-02-19 15:58:21 51°18.666 2°51.752 7.86 3.530566 32.72057 -2.871232
2007-02-19 15:59:21 51°18.639 2°51.617 7.8614 3.528391 32.701764 -2.871232
2007-02-19 16:00:21 51°18.618 2°51.524 7.8502 3.525802 32.680484 -2.871232
2007-02-19 16:01:21 51°18.597 2°51.441 7.8462 3.523938 32.667563 -2.871232
2007-02-19 16:02:21 51°18.578 2°51.355 7.8417 3.522695 32.654763 -2.871232
2007-02-19 16:03:21 51°18.553 2°51.258 7.8428 3.52052 32.639533 -2.871232
2007-02-19 16:04:21 51°18.531 2°51.146 7.831 3.518863 32.624258 -2.871232
2007-02-19 16:05:21 51°18.507 2°51.036 7.8268 3.516481 32.607783 -2.871232
2007-02-19 16:06:21 51°18.516 2°50.962 7.8171 3.514513 32.594676 -2.871232
2007-02-19 16:07:21 51°18.535 2°50.967 7.8151 3.513581 32.585968 -2.871232
2007-02-19 16:08:21 51°18.557 2°50.979 7.8181 3.512856 32.584766 -2.871232
2007-02-19 16:09:21 51°18.581 2°50.99 7.8201 3.513374 32.583834 -2.871232
2007-02-19 16:10:21 51°18.613 2°50.977 7.818 3.513892 32.588274 -2.871232
2007-02-19 16:11:21 51°18.603 2°50.917 7.8226 3.513892 32.589169 -2.871232
2007-02-19 16:12:21 51°18.543 2°50.995 7.8233 3.514513 32.595572 -2.871232
2007-02-19 16:13:21 51°18.392 2°51.191 7.8665 3.514202 32.570893 -2.871232
2007-02-19 16:14:21 51°18.195 2°51.303 7.8113 3.51006 32.547904 -2.871232
2007-02-19 16:15:22 51°17.991 2°51.411 7.8001 3.509232 32.546524 -2.871232
2007-02-19 16:16:22 51°17.79 2°51.516 7.8121 3.509335 32.548485 -2.871232
2007-02-19 16:17:22 51°17.589 2°51.622 7.8088 3.508714 32.544766 -2.871232
2007-02-19 16:18:22 51°17.39 2°51.737 7.8029 3.509335 32.549379 -2.871232
2007-02-19 16:19:22 51°17.243 2°51.982 7.801 3.506539 32.538456 -2.871232
2007-02-19 16:20:22 51°17.144 2°52.298 7.7842 3.506643 32.53505 -2.871232
2007-02-19 16:21:22 51°17.046 2°52.618 7.7819 3.504054 32.519096 -2.871232
2007-02-19 16:22:22 51°16.946 2°52.935 7.7559 3.501672 32.502589 -2.871232
2007-02-19 16:23:22 51°16.845 2°53.251 7.754 3.492765 32.425947 -2.871232
2007-02-19 16:24:22 51°16.738 2°53.569 7.7459 3.483031 32.341619 -2.871232
2007-02-19 16:25:22 51°16.628 2°53.884 7.7251 3.479924 32.313145 -2.871232
2007-02-19 16:26:22 51°16.52 2°54.198 7.719 3.470915 32.224703 -2.871232
2007-02-19 16:27:22 51°16.411 2°54.508 7.716 3.467808 32.200662 -2.871232
2007-02-19 16:28:22 51°16.308 2°54.551 7.7079 3.463044 32.100273 -2.871232
2007-02-19 16:29:22 51°16.288 2°54.451 7.692 3.454139 32.079223 -2.871232
2007-02-19 16:30:22 51°16.269 2°54.376 7.7064 3.453 32.072785 -2.871232
2007-02-19 16:31:22 51°16.254 2°54.309 7.6941 3.453829 32.076021 -2.871232
2007-02-19 16:32:22 51°16.249 2°54.284 7.7011 3.453829 32.076021 -2.871232
2007-02-19 16:33:22 51°16.258 2°54.284 7.7002 3.454036 32.079924 -2.871232
2007-02-19 16:34:22 51°16.269 2°54.282 7.7063 3.453932 32.078857 -2.871232
2007-02-19 16:35:22 51°16.282 2°54.279 7.7021 3.454139 32.080108 -2.871232
2007-02-19 16:36:22 51°16.244 2°54.195 7.7002 3.453725 32.082912 -2.871232
2007-02-19 16:37:22 51°16.069 2°54.201 7.7283 3.45445 32.082426 -2.871232
2007-02-19 16:38:22 51°15.855 2°54.243 7.7179 3.453829 32.070717 -2.871232
2007-02-19 16:39:22 51°15.639 2°54.293 7.7333 3.453311 32.063613 -2.871232
2007-02-19 16:40:22 51°15.425 2°54.359 7.718 3.465323 32.181246 -2.871232
2007-02-19 16:41:22 51°15.211 2°54.429 7.7234 3.470086 32.223263 -2.871232
2007-02-19 16:42:22 51°15.003 2°54.524 7.7298 3.461077 32.135705 -2.871232
2007-02-19 16:43:22 51°14.792 2°54.62 7.7076 3.445544 31.987106 -2.871232
2007-02-19 16:44:22 51°14.594 2°54.768 7.719 3.436225 31.88758 -2.871232
2007-02-19 16:45:22 51°14.416 2°54.968 7.7013 3.374411 31.257873 -2.871232
2007-02-19 16:46:22 51°14.277 2°55.231 7.6603 3.345836 30.983316 -2.871232
2007-02-19 16:47:22 51°14.134 2°55.4 7.6224 3.27948 30.317374 -2.871232
2007-02-19 16:48:22 51°14.008 2°55.494 7.5982 3.213756 29.698614 -2.871232
2007-02-19 16:49:22 51°13.895 2°55.577 7.5933 3.172669 29.290944 -2.871232
2007-02-19 16:50:22 51°13.79 2°55.668 7.5733 3.146177 29.03019 -2.871232
2007-02-19 16:51:22 51°13.703 2°55.793 7.5485 3.000913 27.572805 -2.871232
2007-02-19 16:52:22 51°13.649 2°55.911 7.5475 2.98943 27.457139 -2.871232
2007-02-19 16:53:22 51°13.617 2°56.008 7.5472 2.960156 27.16961 -2.871232
2007-02-19 16:54:22 51°13.602 2°56.079 7.5758 2.991085 27.469362 -2.871232
2007-02-19 16:55:22 51°13.599 2°56.093 7.9334 0.056962 0.402695 -2.871232